sensor_id;sensor_type;location;lat;lon;timestamp;P1;durP1;ratioP1;P2;durP2;ratioP2
75246;SDS011;63844;50.042;19.224;2023-05-13T00:00:24;6.80;;;4.80;;
75246;SDS011;63844;50.042;19.224;2023-05-13T00:03:07;8.70;;;4.70;;
75246;SDS011;63844;50.042;19.224;2023-05-13T00:05:34;6.40;;;3.60;;
75246;SDS011;63844;50.042;19.224;2023-05-13T00:08:00;5.80;;;3.60;;
75246;SDS011;63844;50.042;19.224;2023-05-13T00:10:32;9.90;;;4.50;;
75246;SDS011;63844;50.042;19.224;2023-05-13T00:12:59;5.30;;;3.80;;
75246;SDS011;63844;50.042;19.224;2023-05-13T00:15:26;6.50;;;4.00;;
75246;SDS011;63844;50.042;19.224;2023-05-13T00:17:53;7.40;;;3.90;;
75246;SDS011;63844;50.042;19.224;2023-05-13T00:20:19;9.30;;;4.00;;
75246;SDS011;63844;50.042;19.224;2023-05-13T00:22:46;6.10;;;4.30;;
75246;SDS011;63844;50.042;19.224;2023-05-13T00:25:12;8.50;;;4.70;;
75246;SDS011;63844;50.042;19.224;2023-05-13T00:27:39;7.10;;;4.30;;
75246;SDS011;63844;50.042;19.224;2023-05-13T00:30:05;9.10;;;4.60;;
75246;SDS011;63844;50.042;19.224;2023-05-13T00:32:33;6.20;;;4.10;;
75246;SDS011;63844;50.042;19.224;2023-05-13T00:37:26;8.10;;;4.70;;
75246;SDS011;63844;50.042;19.224;2023-05-13T00:39:52;8.10;;;4.90;;
75246;SDS011;63844;50.042;19.224;2023-05-13T00:42:19;6.70;;;4.20;;
75246;SDS011;63844;50.042;19.224;2023-05-13T00:44:46;10.40;;;4.70;;
75246;SDS011;63844;50.042;19.224;2023-05-13T00:47:12;7.60;;;4.30;;
75246;SDS011;63844;50.042;19.224;2023-05-13T00:49:39;6.90;;;4.10;;
75246;SDS011;63844;50.042;19.224;2023-05-13T00:54:32;5.70;;;3.90;;
75246;SDS011;63844;50.042;19.224;2023-05-13T00:59:26;7.50;;;4.80;;
75246;SDS011;63844;50.042;19.224;2023-05-13T01:10:25;7.70;;;4.60;;
75246;SDS011;63844;50.042;19.224;2023-05-13T01:13:13;8.50;;;5.00;;
75246;SDS011;63844;50.042;19.224;2023-05-13T01:16:12;6.60;;;4.70;;
75246;SDS011;63844;50.042;19.224;2023-05-13T01:18:45;10.10;;;5.10;;
75246;SDS011;63844;50.042;19.224;2023-05-13T01:21:24;9.00;;;5.40;;
75246;SDS011;63844;50.042;19.224;2023-05-13T01:23:51;10.10;;;4.90;;
75246;SDS011;63844;50.042;19.224;2023-05-13T01:26:18;7.50;;;5.10;;
75246;SDS011;63844;50.042;19.224;2023-05-13T01:28:46;8.10;;;4.90;;
75246;SDS011;63844;50.042;19.224;2023-05-13T01:31:12;7.80;;;5.40;;
75246;SDS011;63844;50.042;19.224;2023-05-13T01:33:40;7.70;;;4.70;;
75246;SDS011;63844;50.042;19.224;2023-05-13T01:36:08;10.20;;;5.90;;
75246;SDS011;63844;50.042;19.224;2023-05-13T01:38:35;10.00;;;5.20;;
75246;SDS011;63844;50.042;19.224;2023-05-13T01:41:03;7.40;;;5.00;;
75246;SDS011;63844;50.042;19.224;2023-05-13T01:45:56;12.90;;;5.40;;
75246;SDS011;63844;50.042;19.224;2023-05-13T01:48:25;11.50;;;5.80;;
75246;SDS011;63844;50.042;19.224;2023-05-13T01:50:52;10.20;;;5.80;;
75246;SDS011;63844;50.042;19.224;2023-05-13T01:53:18;12.40;;;6.60;;
75246;SDS011;63844;50.042;19.224;2023-05-13T01:55:45;10.90;;;6.00;;
75246;SDS011;63844;50.042;19.224;2023-05-13T01:58:11;11.40;;;6.30;;
75246;SDS011;63844;50.042;19.224;2023-05-13T02:00:38;13.80;;;5.40;;
75246;SDS011;63844;50.042;19.224;2023-05-13T02:03:04;10.30;;;5.50;;
75246;SDS011;63844;50.042;19.224;2023-05-13T02:05:31;10.60;;;6.60;;
75246;SDS011;63844;50.042;19.224;2023-05-13T02:07:58;9.50;;;6.00;;
75246;SDS011;63844;50.042;19.224;2023-05-13T02:10:24;13.00;;;6.00;;
75246;SDS011;63844;50.042;19.224;2023-05-13T02:12:51;10.40;;;5.90;;
75246;SDS011;63844;50.042;19.224;2023-05-13T02:15:17;10.00;;;5.50;;
75246;SDS011;63844;50.042;19.224;2023-05-13T02:17:44;9.60;;;6.30;;
75246;SDS011;63844;50.042;19.224;2023-05-13T02:20:11;7.10;;;5.40;;
75246;SDS011;63844;50.042;19.224;2023-05-13T02:22:37;8.70;;;5.80;;
75246;SDS011;63844;50.042;19.224;2023-05-13T02:25:04;10.20;;;6.20;;
75246;SDS011;63844;50.042;19.224;2023-05-13T02:29:57;13.80;;;5.50;;
75246;SDS011;63844;50.042;19.224;2023-05-13T02:32:23;11.90;;;6.30;;
75246;SDS011;63844;50.042;19.224;2023-05-13T02:34:50;10.40;;;5.80;;
75246;SDS011;63844;50.042;19.224;2023-05-13T02:37:16;12.90;;;5.80;;
75246;SDS011;63844;50.042;19.224;2023-05-13T02:39:43;7.90;;;4.90;;
75246;SDS011;63844;50.042;19.224;2023-05-13T02:42:09;10.80;;;6.80;;
75246;SDS011;63844;50.042;19.224;2023-05-13T02:47:02;11.20;;;6.60;;
75246;SDS011;63844;50.042;19.224;2023-05-13T02:49:29;13.80;;;8.20;;
75246;SDS011;63844;50.042;19.224;2023-05-13T02:51:55;13.30;;;7.90;;
75246;SDS011;63844;50.042;19.224;2023-05-13T02:54:22;15.20;;;8.40;;
75246;SDS011;63844;50.042;19.224;2023-05-13T02:56:48;12.70;;;8.60;;
75246;SDS011;63844;50.042;19.224;2023-05-13T02:59:15;13.00;;;7.50;;
75246;SDS011;63844;50.042;19.224;2023-05-13T03:01:41;12.60;;;7.60;;
75246;SDS011;63844;50.042;19.224;2023-05-13T03:04:08;13.60;;;8.60;;
75246;SDS011;63844;50.042;19.224;2023-05-13T03:06:34;12.40;;;7.40;;
75246;SDS011;63844;50.042;19.224;2023-05-13T03:09:01;12.30;;;7.80;;
75246;SDS011;63844;50.042;19.224;2023-05-13T03:11:27;12.00;;;7.30;;
75246;SDS011;63844;50.042;19.224;2023-05-13T03:13:54;11.00;;;7.50;;
75246;SDS011;63844;50.042;19.224;2023-05-13T03:16:20;11.20;;;7.20;;
75246;SDS011;63844;50.042;19.224;2023-05-13T03:18:46;10.30;;;6.60;;
75246;SDS011;63844;50.042;19.224;2023-05-13T03:21:13;10.40;;;5.80;;
75246;SDS011;63844;50.042;19.224;2023-05-13T03:23:39;8.50;;;5.20;;
75246;SDS011;63844;50.042;19.224;2023-05-13T03:26:06;9.20;;;4.90;;
75246;SDS011;63844;50.042;19.224;2023-05-13T03:28:32;8.40;;;4.60;;
75246;SDS011;63844;50.042;19.224;2023-05-13T03:30:59;8.30;;;5.40;;
75246;SDS011;63844;50.042;19.224;2023-05-13T03:33:25;9.80;;;4.70;;
75246;SDS011;63844;50.042;19.224;2023-05-13T03:35:54;8.10;;;4.30;;
75246;SDS011;63844;50.042;19.224;2023-05-13T03:38:20;9.10;;;5.60;;
75246;SDS011;63844;50.042;19.224;2023-05-13T03:40:47;6.10;;;3.60;;
75246;SDS011;63844;50.042;19.224;2023-05-13T03:43:13;5.80;;;3.60;;
75246;SDS011;63844;50.042;19.224;2023-05-13T03:45:40;6.80;;;4.00;;
75246;SDS011;63844;50.042;19.224;2023-05-13T03:50:33;6.50;;;4.40;;
75246;SDS011;63844;50.042;19.224;2023-05-13T03:53:00;5.90;;;3.80;;
75246;SDS011;63844;50.042;19.224;2023-05-13T03:55:27;6.60;;;4.20;;
75246;SDS011;63844;50.042;19.224;2023-05-13T03:57:53;6.50;;;4.20;;
75246;SDS011;63844;50.042;19.224;2023-05-13T04:00:20;6.70;;;4.50;;
75246;SDS011;63844;50.042;19.224;2023-05-13T04:02:46;7.80;;;4.50;;
75246;SDS011;63844;50.042;19.224;2023-05-13T04:05:13;8.20;;;4.40;;
75246;SDS011;63844;50.042;19.224;2023-05-13T04:07:39;5.40;;;3.70;;
75246;SDS011;63844;50.042;19.224;2023-05-13T04:10:06;9.90;;;5.30;;
75246;SDS011;63844;50.042;19.224;2023-05-13T04:12:33;6.20;;;4.50;;
75246;SDS011;63844;50.042;19.224;2023-05-13T04:15:00;9.00;;;4.80;;
75246;SDS011;63844;50.042;19.224;2023-05-13T04:17:26;7.80;;;4.80;;
75246;SDS011;63844;50.042;19.224;2023-05-13T04:19:53;9.40;;;4.80;;
75246;SDS011;63844;50.042;19.224;2023-05-13T04:22:21;8.40;;;4.70;;
75246;SDS011;63844;50.042;19.224;2023-05-13T04:24:47;8.20;;;4.90;;
75246;SDS011;63844;50.042;19.224;2023-05-13T04:27:17;8.40;;;4.50;;
75246;SDS011;63844;50.042;19.224;2023-05-13T04:29:43;10.30;;;4.80;;
75246;SDS011;63844;50.042;19.224;2023-05-13T04:32:10;8.30;;;4.90;;
75246;SDS011;63844;50.042;19.224;2023-05-13T04:34:36;9.30;;;4.90;;
75246;SDS011;63844;50.042;19.224;2023-05-13T04:37:03;9.10;;;4.70;;
75246;SDS011;63844;50.042;19.224;2023-05-13T04:41:55;8.40;;;4.70;;
75246;SDS011;63844;50.042;19.224;2023-05-13T04:44:22;10.90;;;4.80;;
75246;SDS011;63844;50.042;19.224;2023-05-13T04:46:48;6.90;;;4.60;;
75246;SDS011;63844;50.042;19.224;2023-05-13T04:49:15;7.80;;;4.50;;
75246;SDS011;63844;50.042;19.224;2023-05-13T04:51:41;9.40;;;5.00;;
75246;SDS011;63844;50.042;19.224;2023-05-13T04:54:08;8.00;;;4.70;;
75246;SDS011;63844;50.042;19.224;2023-05-13T04:56:34;8.60;;;4.80;;
75246;SDS011;63844;50.042;19.224;2023-05-13T04:59:00;7.10;;;4.70;;
75246;SDS011;63844;50.042;19.224;2023-05-13T05:01:27;7.10;;;4.80;;
75246;SDS011;63844;50.042;19.224;2023-05-13T05:03:53;8.50;;;5.00;;
75246;SDS011;63844;50.042;19.224;2023-05-13T05:06:20;8.00;;;4.80;;
75246;SDS011;63844;50.042;19.224;2023-05-13T05:08:47;8.30;;;4.40;;
75246;SDS011;63844;50.042;19.224;2023-05-13T05:11:13;9.20;;;4.40;;
75246;SDS011;63844;50.042;19.224;2023-05-13T05:13:39;6.50;;;4.40;;
75246;SDS011;63844;50.042;19.224;2023-05-13T05:16:06;7.20;;;4.50;;
75246;SDS011;63844;50.042;19.224;2023-05-13T05:18:33;8.40;;;4.40;;
75246;SDS011;63844;50.042;19.224;2023-05-13T05:21:01;10.10;;;5.50;;
75246;SDS011;63844;50.042;19.224;2023-05-13T05:23:28;7.30;;;4.80;;
75246;SDS011;63844;50.042;19.224;2023-05-13T05:25:54;8.40;;;5.90;;
75246;SDS011;63844;50.042;19.224;2023-05-13T05:28:21;10.80;;;6.20;;
75246;SDS011;63844;50.042;19.224;2023-05-13T05:30:49;11.80;;;5.80;;
75246;SDS011;63844;50.042;19.224;2023-05-13T05:33:16;9.30;;;5.60;;
75246;SDS011;63844;50.042;19.224;2023-05-13T05:35:43;9.40;;;6.00;;
75246;SDS011;63844;50.042;19.224;2023-05-13T05:38:09;14.20;;;6.40;;
75246;SDS011;63844;50.042;19.224;2023-05-13T05:40:38;11.80;;;5.90;;
75246;SDS011;63844;50.042;19.224;2023-05-13T05:43:07;9.40;;;5.20;;
75246;SDS011;63844;50.042;19.224;2023-05-13T05:45:36;10.80;;;6.70;;
75246;SDS011;63844;50.042;19.224;2023-05-13T05:48:03;9.40;;;5.80;;
75246;SDS011;63844;50.042;19.224;2023-05-13T05:50:31;15.30;;;5.30;;
75246;SDS011;63844;50.042;19.224;2023-05-13T05:52:59;10.80;;;5.20;;
75246;SDS011;63844;50.042;19.224;2023-05-13T05:55:26;8.70;;;4.70;;
75246;SDS011;63844;50.042;19.224;2023-05-13T05:57:57;14.60;;;6.10;;
75246;SDS011;63844;50.042;19.224;2023-05-13T06:00:29;10.40;;;6.30;;
75246;SDS011;63844;50.042;19.224;2023-05-13T06:02:55;10.50;;;6.70;;
75246;SDS011;63844;50.042;19.224;2023-05-13T06:05:24;10.10;;;5.60;;
75246;SDS011;63844;50.042;19.224;2023-05-13T06:07:51;10.40;;;5.70;;
75246;SDS011;63844;50.042;19.224;2023-05-13T06:12:44;8.30;;;5.90;;
75246;SDS011;63844;50.042;19.224;2023-05-13T06:17:37;8.30;;;4.80;;
75246;SDS011;63844;50.042;19.224;2023-05-13T06:20:04;8.30;;;4.70;;
75246;SDS011;63844;50.042;19.224;2023-05-13T06:22:31;9.80;;;4.20;;
75246;SDS011;63844;50.042;19.224;2023-05-13T06:24:58;3.90;;;2.60;;
75246;SDS011;63844;50.042;19.224;2023-05-13T06:27:24;5.70;;;3.70;;
75246;SDS011;63844;50.042;19.224;2023-05-13T06:29:50;3.40;;;2.40;;
75246;SDS011;63844;50.042;19.224;2023-05-13T06:32:17;4.70;;;3.00;;
75246;SDS011;63844;50.042;19.224;2023-05-13T06:34:43;6.00;;;3.20;;
75246;SDS011;63844;50.042;19.224;2023-05-13T06:37:11;4.20;;;2.00;;
75246;SDS011;63844;50.042;19.224;2023-05-13T06:39:39;5.70;;;3.40;;
75246;SDS011;63844;50.042;19.224;2023-05-13T06:42:05;6.70;;;3.50;;
75246;SDS011;63844;50.042;19.224;2023-05-13T06:44:32;6.40;;;3.80;;
75246;SDS011;63844;50.042;19.224;2023-05-13T06:49:25;10.20;;;4.70;;
75246;SDS011;63844;50.042;19.224;2023-05-13T06:51:51;6.60;;;3.20;;
75246;SDS011;63844;50.042;19.224;2023-05-13T06:54:18;7.20;;;4.00;;
75246;SDS011;63844;50.042;19.224;2023-05-13T06:56:44;7.30;;;4.30;;
75246;SDS011;63844;50.042;19.224;2023-05-13T06:59:11;7.00;;;3.60;;
75246;SDS011;63844;50.042;19.224;2023-05-13T07:01:37;5.30;;;2.90;;
75246;SDS011;63844;50.042;19.224;2023-05-13T07:06:30;5.40;;;3.40;;
75246;SDS011;63844;50.042;19.224;2023-05-13T07:11:23;4.60;;;3.10;;
75246;SDS011;63844;50.042;19.224;2023-05-13T07:13:50;3.80;;;2.60;;
75246;SDS011;63844;50.042;19.224;2023-05-13T07:18:42;4.70;;;3.00;;
75246;SDS011;63844;50.042;19.224;2023-05-13T07:21:09;4.50;;;2.50;;
75246;SDS011;63844;50.042;19.224;2023-05-13T07:26:02;3.50;;;2.20;;
75246;SDS011;63844;50.042;19.224;2023-05-13T07:28:29;5.80;;;3.00;;
75246;SDS011;63844;50.042;19.224;2023-05-13T07:30:55;4.70;;;2.50;;
75246;SDS011;63844;50.042;19.224;2023-05-13T07:33:22;4.20;;;2.00;;
75246;SDS011;63844;50.042;19.224;2023-05-13T07:38:15;3.20;;;2.10;;
75246;SDS011;63844;50.042;19.224;2023-05-13T07:43:07;8.50;;;2.10;;
75246;SDS011;63844;50.042;19.224;2023-05-13T07:45:34;5.50;;;1.80;;
75246;SDS011;63844;50.042;19.224;2023-05-13T07:48:01;5.30;;;2.80;;
75246;SDS011;63844;50.042;19.224;2023-05-13T07:50:28;5.20;;;2.00;;
75246;SDS011;63844;50.042;19.224;2023-05-13T07:52:54;2.70;;;1.30;;
75246;SDS011;63844;50.042;19.224;2023-05-13T07:55:21;9.00;;;2.60;;
75246;SDS011;63844;50.042;19.224;2023-05-13T07:57:48;5.70;;;2.20;;
75246;SDS011;63844;50.042;19.224;2023-05-13T08:00:15;2.50;;;1.90;;
75246;SDS011;63844;50.042;19.224;2023-05-13T08:02:42;4.30;;;2.20;;
75246;SDS011;63844;50.042;19.224;2023-05-13T08:05:09;3.30;;;2.50;;
75246;SDS011;63844;50.042;19.224;2023-05-13T08:07:36;1.80;;;1.60;;
75246;SDS011;63844;50.042;19.224;2023-05-13T08:10:03;2.30;;;2.00;;
75246;SDS011;63844;50.042;19.224;2023-05-13T08:12:30;4.00;;;1.70;;
75246;SDS011;63844;50.042;19.224;2023-05-13T08:14:56;4.00;;;1.40;;
75246;SDS011;63844;50.042;19.224;2023-05-13T08:17:22;2.00;;;1.30;;
75246;SDS011;63844;50.042;19.224;2023-05-13T08:19:49;3.40;;;1.30;;
75246;SDS011;63844;50.042;19.224;2023-05-13T08:22:16;3.60;;;1.60;;
75246;SDS011;63844;50.042;19.224;2023-05-13T08:27:09;3.20;;;1.50;;
75246;SDS011;63844;50.042;19.224;2023-05-13T08:32:01;2.50;;;1.10;;
75246;SDS011;63844;50.042;19.224;2023-05-13T08:34:28;3.30;;;1.40;;
75246;SDS011;63844;50.042;19.224;2023-05-13T08:36:55;1.60;;;1.20;;
75246;SDS011;63844;50.042;19.224;2023-05-13T08:41:48;2.80;;;1.80;;
75246;SDS011;63844;50.042;19.224;2023-05-13T08:44:17;3.60;;;1.70;;
75246;SDS011;63844;50.042;19.224;2023-05-13T08:46:47;1.40;;;1.00;;
75246;SDS011;63844;50.042;19.224;2023-05-13T08:49:18;3.10;;;1.80;;
75246;SDS011;63844;50.042;19.224;2023-05-13T08:51:45;5.50;;;1.80;;
75246;SDS011;63844;50.042;19.224;2023-05-13T08:54:12;2.80;;;1.60;;
75246;SDS011;63844;50.042;19.224;2023-05-13T08:56:41;2.40;;;1.80;;
75246;SDS011;63844;50.042;19.224;2023-05-13T09:01:34;3.50;;;1.70;;
75246;SDS011;63844;50.042;19.224;2023-05-13T09:04:03;2.20;;;1.40;;
75246;SDS011;63844;50.042;19.224;2023-05-13T09:06:33;5.40;;;1.80;;
75246;SDS011;63844;50.042;19.224;2023-05-13T09:09:00;4.30;;;2.20;;
75246;SDS011;63844;50.042;19.224;2023-05-13T09:11:28;2.90;;;1.70;;
75246;SDS011;63844;50.042;19.224;2023-05-13T09:13:55;2.20;;;1.50;;
75246;SDS011;63844;50.042;19.224;2023-05-13T09:16:23;3.80;;;1.90;;
75246;SDS011;63844;50.042;19.224;2023-05-13T09:18:55;2.60;;;1.50;;
75246;SDS011;63844;50.042;19.224;2023-05-13T09:21:23;4.60;;;1.80;;
75246;SDS011;63844;50.042;19.224;2023-05-13T09:24:07;2.50;;;1.50;;
75246;SDS011;63844;50.042;19.224;2023-05-13T09:26:39;2.70;;;1.60;;
75246;SDS011;63844;50.042;19.224;2023-05-13T09:29:23;1.90;;;1.60;;
75246;SDS011;63844;50.042;19.224;2023-05-13T09:31:55;2.10;;;1.50;;
75246;SDS011;63844;50.042;19.224;2023-05-13T09:37:00;2.20;;;2.00;;
75246;SDS011;63844;50.042;19.224;2023-05-13T09:39:29;2.50;;;1.50;;
75246;SDS011;63844;50.042;19.224;2023-05-13T09:41:59;4.30;;;2.10;;
75246;SDS011;63844;50.042;19.224;2023-05-13T09:44:27;3.10;;;1.80;;
75246;SDS011;63844;50.042;19.224;2023-05-13T09:46:53;3.00;;;1.70;;
75246;SDS011;63844;50.042;19.224;2023-05-13T09:49:25;5.20;;;1.70;;
75246;SDS011;63844;50.042;19.224;2023-05-13T09:51:51;1.60;;;1.20;;
75246;SDS011;63844;50.042;19.224;2023-05-13T09:54:18;2.20;;;1.10;;
75246;SDS011;63844;50.042;19.224;2023-05-13T09:56:44;4.70;;;1.90;;
75246;SDS011;63844;50.042;19.224;2023-05-13T09:59:11;2.20;;;1.30;;
75246;SDS011;63844;50.042;19.224;2023-05-13T10:01:37;1.60;;;1.20;;
75246;SDS011;63844;50.042;19.224;2023-05-13T10:04:05;1.20;;;0.70;;
75246;SDS011;63844;50.042;19.224;2023-05-13T10:06:32;6.00;;;2.10;;
75246;SDS011;63844;50.042;19.224;2023-05-13T10:08:59;3.90;;;1.80;;
75246;SDS011;63844;50.042;19.224;2023-05-13T10:11:31;3.30;;;1.40;;
75246;SDS011;63844;50.042;19.224;2023-05-13T10:14:01;1.90;;;1.20;;
75246;SDS011;63844;50.042;19.224;2023-05-13T10:16:33;2.60;;;1.30;;
75246;SDS011;63844;50.042;19.224;2023-05-13T10:18:59;1.60;;;0.90;;
75246;SDS011;63844;50.042;19.224;2023-05-13T10:21:26;1.90;;;0.80;;
75246;SDS011;63844;50.042;19.224;2023-05-13T10:23:53;1.50;;;1.30;;
75246;SDS011;63844;50.042;19.224;2023-05-13T10:26:22;2.80;;;1.40;;
75246;SDS011;63844;50.042;19.224;2023-05-13T10:28:49;1.90;;;1.30;;
75246;SDS011;63844;50.042;19.224;2023-05-13T10:31:16;4.40;;;2.30;;
75246;SDS011;63844;50.042;19.224;2023-05-13T10:33:42;3.10;;;1.30;;
75246;SDS011;63844;50.042;19.224;2023-05-13T10:41:21;2.60;;;1.70;;
75246;SDS011;63844;50.042;19.224;2023-05-13T10:44:01;2.40;;;1.60;;
75246;SDS011;63844;50.042;19.224;2023-05-13T10:46:28;2.50;;;1.60;;
75246;SDS011;63844;50.042;19.224;2023-05-13T10:48:55;1.60;;;1.10;;
75246;SDS011;63844;50.042;19.224;2023-05-13T10:51:24;4.80;;;1.70;;
75246;SDS011;63844;50.042;19.224;2023-05-13T10:53:52;2.90;;;1.40;;
75246;SDS011;63844;50.042;19.224;2023-05-13T10:56:21;2.80;;;1.60;;
75246;SDS011;63844;50.042;19.224;2023-05-13T10:58:59;2.00;;;1.10;;
75246;SDS011;63844;50.042;19.224;2023-05-13T11:01:28;1.60;;;1.30;;
75246;SDS011;63844;50.042;19.224;2023-05-13T11:03:59;4.60;;;1.70;;
75246;SDS011;63844;50.042;19.224;2023-05-13T11:06:28;1.40;;;0.70;;
75246;SDS011;63844;50.042;19.224;2023-05-13T11:08:59;3.20;;;1.30;;
75246;SDS011;63844;50.042;19.224;2023-05-13T11:11:29;4.10;;;1.50;;
75246;SDS011;63844;50.042;19.224;2023-05-13T11:16:28;2.30;;;1.90;;
75246;SDS011;63844;50.042;19.224;2023-05-13T11:18:55;2.70;;;1.50;;
75246;SDS011;63844;50.042;19.224;2023-05-13T11:21:27;3.60;;;1.60;;
75246;SDS011;63844;50.042;19.224;2023-05-13T11:23:56;7.70;;;2.00;;
75246;SDS011;63844;50.042;19.224;2023-05-13T11:26:23;2.60;;;1.10;;
75246;SDS011;63844;50.042;19.224;2023-05-13T11:31:20;5.90;;;1.50;;
75246;SDS011;63844;50.042;19.224;2023-05-13T11:34:07;4.80;;;1.50;;
75246;SDS011;63844;50.042;19.224;2023-05-13T11:36:38;1.80;;;1.00;;
75246;SDS011;63844;50.042;19.224;2023-05-13T11:39:07;3.40;;;1.30;;
75246;SDS011;63844;50.042;19.224;2023-05-13T11:41:44;1.90;;;1.10;;
75246;SDS011;63844;50.042;19.224;2023-05-13T11:44:13;3.00;;;1.50;;
75246;SDS011;63844;50.042;19.224;2023-05-13T11:46:51;4.00;;;1.60;;
75246;SDS011;63844;50.042;19.224;2023-05-13T11:49:44;3.60;;;2.00;;
75246;SDS011;63844;50.042;19.224;2023-05-13T11:52:12;6.50;;;1.80;;
75246;SDS011;63844;50.042;19.224;2023-05-13T11:54:41;1.60;;;1.50;;
75246;SDS011;63844;50.042;19.224;2023-05-13T12:02:28;2.40;;;1.60;;
75246;SDS011;63844;50.042;19.224;2023-05-13T12:04:59;2.80;;;1.40;;
75246;SDS011;63844;50.042;19.224;2023-05-13T12:07:27;2.10;;;1.30;;
75246;SDS011;63844;50.042;19.224;2023-05-13T12:09:55;1.90;;;1.30;;
75246;SDS011;63844;50.042;19.224;2023-05-13T12:12:24;1.70;;;1.20;;
75246;SDS011;63844;50.042;19.224;2023-05-13T12:14:52;5.90;;;1.20;;
75246;SDS011;63844;50.042;19.224;2023-05-13T12:17:20;3.00;;;1.10;;
75246;SDS011;63844;50.042;19.224;2023-05-13T12:20:03;1.70;;;1.60;;
75246;SDS011;63844;50.042;19.224;2023-05-13T12:22:30;1.70;;;1.10;;
75246;SDS011;63844;50.042;19.224;2023-05-13T12:24:57;2.10;;;1.70;;
75246;SDS011;63844;50.042;19.224;2023-05-13T12:27:26;1.80;;;1.30;;
75246;SDS011;63844;50.042;19.224;2023-05-13T12:29:53;2.70;;;1.40;;
75246;SDS011;63844;50.042;19.224;2023-05-13T12:32:22;2.10;;;1.20;;
75246;SDS011;63844;50.042;19.224;2023-05-13T12:34:50;5.70;;;1.80;;
75246;SDS011;63844;50.042;19.224;2023-05-13T12:37:16;4.90;;;2.20;;
75246;SDS011;63844;50.042;19.224;2023-05-13T12:39:43;1.00;;;1.00;;
75246;SDS011;63844;50.042;19.224;2023-05-13T12:42:13;3.10;;;1.70;;
75246;SDS011;63844;50.042;19.224;2023-05-13T12:44:41;1.60;;;1.10;;
75246;SDS011;63844;50.042;19.224;2023-05-13T12:47:09;1.90;;;1.60;;
75246;SDS011;63844;50.042;19.224;2023-05-13T12:49:51;3.50;;;1.60;;
75246;SDS011;63844;50.042;19.224;2023-05-13T12:52:18;1.70;;;1.50;;
75246;SDS011;63844;50.042;19.224;2023-05-13T12:54:46;1.90;;;1.60;;
75246;SDS011;63844;50.042;19.224;2023-05-13T12:57:16;1.10;;;1.00;;
75246;SDS011;63844;50.042;19.224;2023-05-13T12:59:43;1.90;;;1.80;;
75246;SDS011;63844;50.042;19.224;2023-05-13T13:02:12;2.00;;;1.80;;
75246;SDS011;63844;50.042;19.224;2023-05-13T13:04:39;2.70;;;1.60;;
75246;SDS011;63844;50.042;19.224;2023-05-13T13:07:05;4.20;;;1.40;;
75246;SDS011;63844;50.042;19.224;2023-05-13T13:09:37;2.70;;;1.60;;
75246;SDS011;63844;50.042;19.224;2023-05-13T13:12:03;3.60;;;1.90;;
75246;SDS011;63844;50.042;19.224;2023-05-13T13:14:31;2.30;;;1.90;;
75246;SDS011;63844;50.042;19.224;2023-05-13T13:16:58;1.30;;;1.00;;
75246;SDS011;63844;50.042;19.224;2023-05-13T13:19:25;2.00;;;1.30;;
75246;SDS011;63844;50.042;19.224;2023-05-13T13:21:51;2.40;;;1.70;;
75246;SDS011;63844;50.042;19.224;2023-05-13T13:24:17;2.80;;;1.30;;
75246;SDS011;63844;50.042;19.224;2023-05-13T13:26:44;3.80;;;1.60;;
75246;SDS011;63844;50.042;19.224;2023-05-13T13:29:10;2.10;;;1.60;;
75246;SDS011;63844;50.042;19.224;2023-05-13T13:31:37;2.10;;;1.50;;
75246;SDS011;63844;50.042;19.224;2023-05-13T13:34:03;2.90;;;1.70;;
75246;SDS011;63844;50.042;19.224;2023-05-13T13:36:31;4.20;;;2.00;;
75246;SDS011;63844;50.042;19.224;2023-05-13T13:38:57;3.90;;;1.40;;
75246;SDS011;63844;50.042;19.224;2023-05-13T13:41:24;2.60;;;1.70;;
75246;SDS011;63844;50.042;19.224;2023-05-13T13:43:51;2.50;;;1.50;;
75246;SDS011;63844;50.042;19.224;2023-05-13T13:46:17;2.40;;;1.60;;
75246;SDS011;63844;50.042;19.224;2023-05-13T13:48:44;3.00;;;1.20;;
75246;SDS011;63844;50.042;19.224;2023-05-13T13:51:11;4.20;;;2.60;;
75246;SDS011;63844;50.042;19.224;2023-05-13T13:53:37;5.40;;;2.70;;
75246;SDS011;63844;50.042;19.224;2023-05-13T13:56:04;3.10;;;2.20;;
75246;SDS011;63844;50.042;19.224;2023-05-13T13:58:30;3.60;;;1.50;;
75246;SDS011;63844;50.042;19.224;2023-05-13T14:00:57;5.40;;;2.00;;
75246;SDS011;63844;50.042;19.224;2023-05-13T14:03:23;2.50;;;1.80;;
75246;SDS011;63844;50.042;19.224;2023-05-13T14:05:50;1.90;;;1.70;;
75246;SDS011;63844;50.042;19.224;2023-05-13T14:08:17;5.40;;;2.20;;
75246;SDS011;63844;50.042;19.224;2023-05-13T14:10:43;2.30;;;1.60;;
75246;SDS011;63844;50.042;19.224;2023-05-13T14:13:10;2.40;;;1.50;;
75246;SDS011;63844;50.042;19.224;2023-05-13T14:15:36;7.00;;;2.60;;
75246;SDS011;63844;50.042;19.224;2023-05-13T14:18:04;3.70;;;2.30;;
75246;SDS011;63844;50.042;19.224;2023-05-13T14:20:34;2.40;;;1.30;;
75246;SDS011;63844;50.042;19.224;2023-05-13T14:23:01;2.40;;;1.80;;
75246;SDS011;63844;50.042;19.224;2023-05-13T14:25:27;2.60;;;1.20;;
75246;SDS011;63844;50.042;19.224;2023-05-13T14:27:54;1.70;;;1.10;;
75246;SDS011;63844;50.042;19.224;2023-05-13T14:30:20;3.60;;;1.90;;
75246;SDS011;63844;50.042;19.224;2023-05-13T14:32:47;4.80;;;1.90;;
75246;SDS011;63844;50.042;19.224;2023-05-13T14:35:14;2.50;;;1.40;;
75246;SDS011;63844;50.042;19.224;2023-05-13T14:37:41;1.70;;;1.50;;
75246;SDS011;63844;50.042;19.224;2023-05-13T14:40:08;3.20;;;1.70;;
75246;SDS011;63844;50.042;19.224;2023-05-13T14:42:34;3.70;;;1.50;;
75246;SDS011;63844;50.042;19.224;2023-05-13T14:45:01;1.50;;;1.20;;
75246;SDS011;63844;50.042;19.224;2023-05-13T14:47:27;2.10;;;1.60;;
75246;SDS011;63844;50.042;19.224;2023-05-13T14:49:54;3.10;;;2.40;;
75246;SDS011;63844;50.042;19.224;2023-05-13T14:52:20;4.00;;;2.10;;
75246;SDS011;63844;50.042;19.224;2023-05-13T14:54:47;3.40;;;1.80;;
75246;SDS011;63844;50.042;19.224;2023-05-13T14:57:13;3.60;;;1.80;;
75246;SDS011;63844;50.042;19.224;2023-05-13T14:59:40;4.20;;;2.20;;
75246;SDS011;63844;50.042;19.224;2023-05-13T15:02:06;2.70;;;1.40;;
75246;SDS011;63844;50.042;19.224;2023-05-13T15:04:33;7.00;;;5.00;;
75246;SDS011;63844;50.042;19.224;2023-05-13T15:07:00;5.20;;;2.80;;
75246;SDS011;63844;50.042;19.224;2023-05-13T15:09:27;2.00;;;1.30;;
75246;SDS011;63844;50.042;19.224;2023-05-13T15:11:53;3.80;;;2.80;;
75246;SDS011;63844;50.042;19.224;2023-05-13T15:14:21;3.20;;;2.30;;
75246;SDS011;63844;50.042;19.224;2023-05-13T15:16:51;2.50;;;1.30;;
75246;SDS011;63844;50.042;19.224;2023-05-13T15:19:18;3.50;;;1.60;;
75246;SDS011;63844;50.042;19.224;2023-05-13T15:21:44;2.20;;;1.60;;
75246;SDS011;63844;50.042;19.224;2023-05-13T15:24:10;2.50;;;1.00;;
75246;SDS011;63844;50.042;19.224;2023-05-13T15:26:37;1.80;;;1.40;;
75246;SDS011;63844;50.042;19.224;2023-05-13T15:29:03;3.60;;;1.90;;
75246;SDS011;63844;50.042;19.224;2023-05-13T15:31:30;2.20;;;1.50;;
75246;SDS011;63844;50.042;19.224;2023-05-13T15:33:57;2.50;;;1.80;;
75246;SDS011;63844;50.042;19.224;2023-05-13T15:36:24;2.00;;;1.60;;
75246;SDS011;63844;50.042;19.224;2023-05-13T15:38:50;1.90;;;1.60;;
75246;SDS011;63844;50.042;19.224;2023-05-13T15:41:17;3.10;;;1.70;;
75246;SDS011;63844;50.042;19.224;2023-05-13T15:43:44;3.40;;;1.40;;
75246;SDS011;63844;50.042;19.224;2023-05-13T15:46:10;1.20;;;1.00;;
75246;SDS011;63844;50.042;19.224;2023-05-13T15:48:36;3.30;;;1.90;;
75246;SDS011;63844;50.042;19.224;2023-05-13T15:51:03;3.50;;;2.00;;
75246;SDS011;63844;50.042;19.224;2023-05-13T15:53:32;4.20;;;2.20;;